createdAt,value
2022-09-15T04:02:48.661Z,4.28
2022-09-15T04:07:00.137Z,4.63
2022-09-15T04:11:12.715Z,4.97
2022-09-15T04:15:24.270Z,4.68
2022-09-15T04:19:37.246Z,5.28
2022-09-15T04:23:49.392Z,4.40
2022-09-15T04:28:01.064Z,5.40
2022-09-15T04:32:12.545Z,4.60
2022-09-15T04:36:26.032Z,5.72
2022-09-15T04:40:38.153Z,5.80
2022-09-15T04:44:49.677Z,5.32
2022-09-15T04:49:01.206Z,6.15
2022-09-15T04:53:13.277Z,6.38
2022-09-15T04:57:24.755Z,6.00
2022-09-15T05:01:36.349Z,5.53
2022-09-15T05:05:48.046Z,5.90
2022-09-15T05:09:59.542Z,5.10
2022-09-15T05:14:11.319Z,5.55
2022-09-15T05:18:22.908Z,5.20
2022-09-15T05:22:38.307Z,4.13
2022-09-15T05:26:52.504Z,3.50
2022-09-15T05:31:12.000Z,2.70
2022-09-15T05:35:23.602Z,2.10
2022-09-15T05:39:35.098Z,2.30
2022-09-15T05:43:48.365Z,2.22
2022-09-15T05:47:59.846Z,2.13
2022-09-15T05:52:11.329Z,2.20
2022-09-15T05:56:23.247Z,2.78
2022-09-15T06:00:34.888Z,3.30
2022-09-15T06:04:46.399Z,3.50
2022-09-15T06:08:59.589Z,3.70
2022-09-15T06:13:11.228Z,3.70
2022-09-15T06:17:23.190Z,4.38
2022-09-15T06:21:34.684Z,3.67
2022-09-15T06:25:46.170Z,4.40
2022-09-15T06:29:57.717Z,5.28
2022-09-15T06:34:11.174Z,5.35
2022-09-15T06:38:22.649Z,5.57
2022-09-15T06:42:34.174Z,6.15
2022-09-15T06:46:45.685Z,5.75
2022-09-15T06:50:57.155Z,6.30
2022-09-15T06:55:09.019Z,7.05
2022-09-15T06:59:20.553Z,8.05
2022-09-15T07:03:32.185Z,7.43
2022-09-15T07:07:43.913Z,8.02
2022-09-15T07:11:55.388Z,9.25
2022-09-15T07:16:10.041Z,9.48
2022-09-15T07:20:59.209Z,9.20
2022-09-15T07:25:10.754Z,10.23
2022-09-15T07:29:22.221Z,9.40
2022-09-15T07:33:35.145Z,9.75
2022-09-15T07:37:46.685Z,8.77
2022-09-15T07:41:58.149Z,9.82
2022-09-15T07:46:09.719Z,9.30
2022-09-15T07:50:21.527Z,9.70
2022-09-15T07:54:33.010Z,9.80
2022-09-15T07:58:48.651Z,9.52
2022-09-15T08:03:00.648Z,9.90
2022-09-15T08:07:12.434Z,9.85
2022-09-15T08:11:24.003Z,9.35
2022-09-15T08:15:37.694Z,9.57
2022-09-15T08:19:49.188Z,9.65
2022-09-15T08:29:58.651Z,8.63
2022-09-15T08:34:11.828Z,10.18
2022-09-15T08:44:50.166Z,10.45
2022-09-15T08:49:47.421Z,9.88
2022-09-15T08:54:03.085Z,9.48
2022-09-15T08:58:19.313Z,9.05
2022-09-15T09:02:54.507Z,10.10
2022-09-15T09:07:12.078Z,8.98
2022-09-15T09:11:58.933Z,8.77
2022-09-15T09:16:38.462Z,7.95
2022-09-15T09:21:13.990Z,7.78
2022-09-15T09:25:28.012Z,6.47
2022-09-15T09:29:44.860Z,6.32
2022-09-15T09:34:22.986Z,6.65
2022-09-15T09:38:46.885Z,6.90
2022-09-15T09:43:00.067Z,5.07
2022-09-15T09:47:13.136Z,4.43
2022-09-15T09:51:38.812Z,3.83
2022-09-15T09:55:50.403Z,3.67
2022-09-15T10:00:02.013Z,3.78
2022-09-15T10:04:19.498Z,3.40
2022-09-15T10:08:31.073Z,3.80
2022-09-15T10:12:50.227Z,3.50
2022-09-15T10:17:07.565Z,3.33
2022-09-15T10:21:23.526Z,3.00
2022-09-15T10:25:58.180Z,2.88
2022-09-15T10:30:18.067Z,3.25
2022-09-15T10:34:31.645Z,2.47
2022-09-15T10:38:59.463Z,2.78
2022-09-15T10:43:23.527Z,2.33
2022-09-15T10:48:09.818Z,2.67
2022-09-15T10:52:54.808Z,2.60
2022-09-15T10:57:20.098Z,2.85
2022-09-15T11:01:42.472Z,2.90
2022-09-15T11:06:16.056Z,2.35
2022-09-15T11:10:40.023Z,2.53
2022-09-15T11:15:03.591Z,2.40
2022-09-15T11:19:33.017Z,2.72
2022-09-15T11:24:07.082Z,3.10
2022-09-15T11:28:41.670Z,2.45
2022-09-15T11:33:07.199Z,3.13
2022-09-15T11:37:26.710Z,3.03
2022-09-15T11:41:43.796Z,2.58
2022-09-15T11:45:57.725Z,2.97
2022-09-15T11:50:23.560Z,2.90
2022-09-15T11:54:42.234Z,2.35
2022-09-15T11:59:14.303Z,2.30
2022-09-15T12:03:37.779Z,3.03
2022-09-15T12:08:05.968Z,2.83
2022-09-15T12:12:20.652Z,2.80
2022-09-15T12:16:34.206Z,3.20
2022-09-15T12:20:57.903Z,3.25
2022-09-15T12:25:16.510Z,3.30
2022-09-15T12:29:31.299Z,2.60
2022-09-15T12:33:43.416Z,2.10
2022-09-15T12:37:56.780Z,2.70
2022-09-15T12:42:37.740Z,2.55
2022-09-15T12:47:00.880Z,2.78
2022-09-15T12:51:23.443Z,2.30
2022-09-15T12:55:37.655Z,2.47
2022-09-15T12:59:49.190Z,2.60
2022-09-15T13:04:03.526Z,2.70
2022-09-15T13:08:36.125Z,2.90
2022-09-15T13:12:54.410Z,2.72
2022-09-15T13:17:14.311Z,2.92
2022-09-15T13:21:26.605Z,2.70
2022-09-15T13:25:41.897Z,2.78
2022-09-15T13:30:22.815Z,2.78
2022-09-15T13:35:09.778Z,2.70
2022-09-15T13:39:49.281Z,3.15
2022-09-15T13:50:10.224Z,2.80
2022-09-15T13:54:21.851Z,2.63
2022-09-15T14:03:12.713Z,2.70
2022-09-15T14:07:24.995Z,2.85
2022-09-15T14:11:37.946Z,2.60
2022-09-15T14:16:11.881Z,3.20
2022-09-15T14:20:26.213Z,2.85
2022-09-15T14:24:40.114Z,2.97
2022-09-15T14:29:21.548Z,2.75
2022-09-15T14:34:01.862Z,2.80
2022-09-15T14:38:21.736Z,2.67
2022-09-15T14:42:41.026Z,3.15
2022-09-15T14:46:53.370Z,2.50
2022-09-15T14:51:13.283Z,2.80
2022-09-15T14:55:28.840Z,2.50
2022-09-15T14:59:58.746Z,2.60
2022-09-15T15:04:18.740Z,2.55
2022-09-15T15:08:45.907Z,2.65
2022-09-15T15:13:04.363Z,2.28
2022-09-15T15:17:34.400Z,3.05
2022-09-15T15:21:48.082Z,2.80
2022-09-15T15:26:39.659Z,2.60
2022-09-15T15:30:51.168Z,2.60
2022-09-15T15:35:03.013Z,2.40
2022-09-15T15:39:24.895Z,2.42
2022-09-15T15:43:36.511Z,2.50
2022-09-15T15:47:48.239Z,2.70
2022-09-15T15:52:00.826Z,2.35
2022-09-15T15:56:12.900Z,2.83
2022-09-15T16:00:29.909Z,2.60
2022-09-15T16:04:41.483Z,3.38
2022-09-15T16:08:53.098Z,3.13
2022-09-15T16:13:04.566Z,2.50
2022-09-15T16:17:16.034Z,2.70
2022-09-15T16:21:36.595Z,2.80
2022-09-15T16:26:01.670Z,2.92
2022-09-15T16:30:13.202Z,2.65
2022-09-15T16:34:24.702Z,2.78
2022-09-15T16:38:36.760Z,2.65
2022-09-15T16:42:48.646Z,2.58
2022-09-15T16:47:06.779Z,2.97
2022-09-15T16:51:27.390Z,2.88
2022-09-15T16:55:48.141Z,2.65
2022-09-15T16:59:59.619Z,2.22
2022-09-15T17:04:19.108Z,2.47
2022-09-15T17:08:32.534Z,2.88
2022-09-15T17:12:44.115Z,2.97
2022-09-15T17:16:55.889Z,2.88
2022-09-15T17:21:10.423Z,2.80
2022-09-15T17:25:35.568Z,3.22
2022-09-15T17:29:47.042Z,3.30
2022-09-15T17:33:58.512Z,2.90
2022-09-15T17:38:10.006Z,3.00
2022-09-15T17:42:21.548Z,3.60
2022-09-15T17:46:33.047Z,3.22
2022-09-15T17:50:46.147Z,3.03
2022-09-15T17:54:57.630Z,3.88
2022-09-15T17:59:13.050Z,2.97
2022-09-15T18:03:36.466Z,3.03
2022-09-15T18:07:48.260Z,2.83
2022-09-15T18:11:59.911Z,2.90
2022-09-15T18:16:13.042Z,2.85
2022-09-15T18:20:27.367Z,3.20
2022-09-15T18:24:38.842Z,3.30
2022-09-15T18:28:50.299Z,3.70
2022-09-15T18:33:01.948Z,3.70
2022-09-15T18:37:13.414Z,3.63
2022-09-15T18:41:24.878Z,3.63
2022-09-15T18:45:36.442Z,3.50
2022-09-15T18:49:47.949Z,3.45
2022-09-15T18:53:59.462Z,3.60
2022-09-15T18:58:11.956Z,4.18
2022-09-15T19:02:23.544Z,3.40
2022-09-15T19:06:35.430Z,3.80
2022-09-15T19:10:56.317Z,4.90
2022-09-15T19:15:11.999Z,4.47
2022-09-15T19:19:24.092Z,3.88
2022-09-15T19:23:36.160Z,3.72
2022-09-15T19:27:48.522Z,3.67
2022-09-15T19:32:02.094Z,3.85
2022-09-15T19:36:29.312Z,3.90
2022-09-15T19:40:41.171Z,3.72
2022-09-15T19:44:52.722Z,3.60
2022-09-15T19:49:04.449Z,3.58
2022-09-15T19:53:15.949Z,4.13
2022-09-15T19:57:27.546Z,3.67
2022-09-15T20:01:39.165Z,3.55
2022-09-15T20:06:00.206Z,3.75
2022-09-15T20:10:12.467Z,3.60
2022-09-15T20:14:24.032Z,3.35
2022-09-15T20:18:41.213Z,4.13
2022-09-15T20:22:52.721Z,3.85
2022-09-15T20:27:04.235Z,3.90
2022-09-15T20:31:21.526Z,4.00
2022-09-15T20:35:33.028Z,3.42
2022-09-15T20:39:48.679Z,3.85
2022-09-15T20:44:00.501Z,4.00
2022-09-15T20:48:16.123Z,4.25
2022-09-15T20:52:38.375Z,3.30
2022-09-15T20:56:50.186Z,3.95
2022-09-15T21:01:08.003Z,3.67
2022-09-15T21:05:19.494Z,3.72
2022-09-15T21:09:31.004Z,4.22
2022-09-15T21:13:43.480Z,3.90
2022-09-15T21:17:54.945Z,3.92
2022-09-15T21:22:06.425Z,3.92
2022-09-15T21:26:20.081Z,4.07
